Time;durP1;ratioP1;P1;durP2;ratioP2;P2;SDS_P1;SDS_P2;PMS_P1;PMS_P2;Temp;Humidity;BMP_temperature;BMP_pressure;BME280_temperature;BME280_humidity;BME280_pressure;Samples;Min_cycle;Max_cycle;Signal;HPM_P1;HPM_P2
2023/09/02 00:01:39;;;;;;;1.98;1.30;;;17.30;99.90;;;;;;4896930;29;20036;-75
2023/09/02 00:04:07;;;;;;;2.47;1.40;;;17.30;99.90;;;;;;4917488;29;20492;-76
2023/09/02 00:06:33;;;;;;;2.33;1.65;;;17.30;99.90;;;;;;4916880;29;20036;-75
2023/09/02 00:08:58;;;;;;;5.30;1.88;;;17.20;99.90;;;;;;4918396;29;20032;-75
2023/09/02 00:11:24;;;;;;;3.33;1.63;;;17.20;99.90;;;;;;4917487;29;20052;-75
2023/09/02 00:13:50;;;;;;;3.88;1.88;;;17.20;99.90;;;;;;4913358;29;20172;-76
2023/09/02 00:16:17;;;;;;;3.28;1.75;;;17.20;99.90;;;;;;4917481;29;20480;-75
2023/09/02 00:18:42;;;;;;;3.92;1.83;;;17.10;99.90;;;;;;4914339;29;20020;-75
2023/09/02 00:21:08;;;;;;;2.85;1.92;;;17.10;99.90;;;;;;4915932;29;20042;-76
2023/09/02 00:23:39;;;;;;;3.13;1.65;;;17.10;99.90;;;;;;4917320;29;20040;-77
2023/09/02 00:26:05;;;;;;;4.13;2.00;;;17.10;99.90;;;;;;4923497;29;20048;-77
2023/09/02 00:28:30;;;;;;;3.10;1.33;;;17.10;99.90;;;;;;4922514;29;20047;-76
2023/09/02 00:30:56;;;;;;;4.85;1.50;;;17.10;99.90;;;;;;4924103;29;20133;-77
2023/09/02 00:33:21;;;;;;;3.88;1.75;;;17.10;99.90;;;;;;4921492;29;20032;-76
2023/09/02 00:35:47;;;;;;;3.50;1.52;;;17.00;99.90;;;;;;4921643;29;20039;-76
2023/09/02 00:38:13;;;;;;;2.80;1.25;;;17.00;99.90;;;;;;4918719;29;20031;-76
2023/09/02 00:40:48;;;;;;;2.50;1.40;;;17.00;99.90;;;;;;4920275;29;20028;-76
2023/09/02 00:43:14;;;;;;;4.32;1.73;;;17.00;99.90;;;;;;4918772;29;20024;-77
2023/09/02 00:45:40;;;;;;;5.85;1.60;;;17.00;99.90;;;;;;4924052;29;20130;-77
2023/09/02 00:48:06;;;;;;;2.60;2.03;;;17.00;99.90;;;;;;4924067;29;20027;-77
2023/09/02 00:50:35;;;;;;;4.93;1.83;;;17.00;99.90;;;;;;4921558;29;20020;-77
2023/09/02 00:53:00;;;;;;;3.72;1.80;;;17.00;99.90;;;;;;4920727;29;20480;-77
2023/09/02 00:55:30;;;;;;;3.83;1.95;;;16.90;99.90;;;;;;4936081;29;20031;-77
2023/09/02 00:57:56;;;;;;;6.00;2.22;;;16.90;99.90;;;;;;4924439;29;20028;-76
2023/09/02 01:00:22;;;;;;;6.43;2.03;;;16.90;99.90;;;;;;4924846;29;20032;-77
2023/09/02 01:02:49;;;;;;;3.53;2.15;;;16.90;99.90;;;;;;4927012;29;20031;-78
2023/09/02 01:05:15;;;;;;;3.47;2.00;;;16.90;99.90;;;;;;4924251;29;20498;-78
2023/09/02 01:07:43;;;;;;;3.22;1.80;;;16.90;99.90;;;;;;4929533;29;20040;-78
2023/09/02 01:10:09;;;;;;;4.63;2.13;;;16.90;99.90;;;;;;4926359;29;20115;-78
2023/09/02 01:12:35;;;;;;;4.00;1.85;;;16.80;99.90;;;;;;4907382;29;20083;-78
2023/09/02 01:15:00;;;;;;;4.47;1.80;;;16.70;99.90;;;;;;4923350;29;20042;-77
2023/09/02 01:17:26;;;;;;;3.05;1.80;;;16.80;99.90;;;;;;4922271;29;20115;-77
2023/09/02 01:19:56;;;;;;;2.72;1.52;;;16.70;99.90;;;;;;4918799;29;20036;-77
2023/09/02 01:22:41;;;;;;;6.68;2.17;;;16.60;99.90;;;;;;4920580;29;20024;-77
2023/09/02 01:25:07;;;;;;;4.75;2.00;;;16.60;99.90;;;;;;4919620;29;20031;-77
2023/09/02 01:27:43;;;;;;;4.30;2.25;;;16.60;99.90;;;;;;4902892;29;20028;-77
2023/09/02 01:30:22;;;;;;;5.00;2.55;;;16.50;99.90;;;;;;4935222;29;20028;-76
2023/09/02 01:32:51;;;;;;;4.15;2.10;;;16.50;99.90;;;;;;4934248;29;20091;-77
2023/09/02 01:35:21;;;;;;;3.45;2.20;;;16.50;99.90;;;;;;4915665;29;20048;-76
2023/09/02 01:37:57;;;;;;;3.05;1.75;;;16.40;99.90;;;;;;4933846;29;20028;-76
2023/09/02 01:40:25;;;;;;;5.53;2.75;;;16.50;99.90;;;;;;4916257;29;20472;-76
2023/09/02 01:42:52;;;;;;;3.60;1.63;;;16.40;99.90;;;;;;4909114;29;20032;-76
2023/09/02 01:45:19;;;;;;;6.47;1.90;;;16.50;99.90;;;;;;4916571;29;20032;-77
2023/09/02 01:47:50;;;;;;;4.55;2.33;;;16.40;99.90;;;;;;4918372;29;20039;-75
2023/09/02 01:50:18;;;;;;;4.13;2.53;;;16.40;99.90;;;;;;4919545;29;20024;-75
2023/09/02 01:52:45;;;;;;;4.68;2.30;;;16.40;99.90;;;;;;4901157;29;20428;-76
2023/09/02 01:55:16;;;;;;;3.38;2.10;;;16.40;99.90;;;;;;4934835;29;20039;-75
2023/09/02 01:57:42;;;;;;;4.60;2.10;;;16.30;99.90;;;;;;4917262;29;20032;-76
2023/09/02 02:00:11;;;;;;;4.90;2.47;;;16.30;99.90;;;;;;4902693;29;20036;-76
2023/09/02 02:02:38;;;;;;;5.35;2.30;;;16.20;99.90;;;;;;4918376;29;20047;-75
2023/09/02 02:05:06;;;;;;;4.60;2.10;;;16.10;99.90;;;;;;4916923;29;20051;-76
2023/09/02 02:07:35;;;;;;;5.85;2.25;;;16.10;99.90;;;;;;4917651;29;20496;-76
2023/09/02 02:10:05;;;;;;;11.32;2.25;;;16.00;99.90;;;;;;4920112;29;20095;-76
2023/09/02 02:12:32;;;;;;;7.47;2.35;;;16.00;99.90;;;;;;4918366;29;20047;-76
2023/09/02 02:14:57;;;;;;;6.40;2.08;;;16.00;99.90;;;;;;4920811;29;20063;-76
2023/09/02 02:17:23;;;;;;;3.78;2.00;;;15.90;99.90;;;;;;4914107;29;20021;-75
2023/09/02 02:19:49;;;;;;;9.02;2.30;;;15.90;99.90;;;;;;4914327;29;20123;-76
2023/09/02 02:22:14;;;;;;;3.58;2.20;;;15.90;99.90;;;;;;4917506;29;20028;-75
2023/09/02 02:24:40;;;;;;;3.33;1.80;;;16.00;99.90;;;;;;4918950;29;20036;-76
2023/09/02 02:27:06;;;;;;;3.92;1.77;;;15.90;99.90;;;;;;4905086;29;20468;-76
2023/09/02 02:29:31;;;;;;;5.90;2.00;;;15.90;99.90;;;;;;4916751;29;20032;-76
2023/09/02 02:31:57;;;;;;;4.30;1.75;;;15.90;99.90;;;;;;4916128;29;20040;-76
2023/09/02 02:34:25;;;;;;;3.05;1.50;;;15.90;99.90;;;;;;4902797;29;20028;-76
2023/09/02 02:36:51;;;;;;;3.92;1.55;;;15.90;99.90;;;;;;4900624;29;20424;-76
2023/09/02 02:39:17;;;;;;;3.25;1.63;;;15.80;99.90;;;;;;4896436;29;20059;-77
2023/09/02 02:41:42;;;;;;;2.63;1.77;;;15.80;99.90;;;;;;4912930;29;20562;-76
2023/09/02 02:44:08;;;;;;;2.55;1.60;;;15.80;99.90;;;;;;4917791;29;20095;-76
2023/09/02 02:46:33;;;;;;;9.32;2.10;;;15.80;99.90;;;;;;4920550;29;20028;-77
2023/09/02 02:48:59;;;;;;;4.80;2.28;;;15.70;99.90;;;;;;4920260;29;20237;-75
2023/09/02 02:51:28;;;;;;;6.93;2.63;;;15.70;99.90;;;;;;4913971;29;20071;-76
2023/09/02 02:53:53;;;;;;;3.45;2.45;;;15.70;99.90;;;;;;4917226;29;20131;-76
2023/09/02 02:56:19;;;;;;;4.35;2.08;;;15.70;99.90;;;;;;4919339;29;20056;-76
2023/09/02 02:58:45;;;;;;;4.88;2.20;;;15.60;99.90;;;;;;4933771;29;20088;-76
2023/09/02 03:01:11;;;;;;;3.78;1.80;;;15.60;99.90;;;;;;4918934;29;20024;-76
2023/09/02 03:03:37;;;;;;;4.60;2.28;;;15.60;99.90;;;;;;4919611;29;20087;-71
2023/09/02 03:06:04;;;;;;;5.07;2.10;;;15.60;99.90;;;;;;4916840;29;20032;-70
2023/09/02 03:08:30;;;;;;;7.65;2.08;;;15.60;99.90;;;;;;4916386;29;20103;-70
2023/09/02 03:11:00;;;;;;;8.35;2.25;;;15.50;99.90;;;;;;4915427;29;20032;-75
2023/09/02 03:13:33;;;;;;;5.45;2.03;;;15.60;99.90;;;;;;4922465;29;20043;-75
2023/09/02 03:16:02;;;;;;;2.53;1.45;;;15.60;99.90;;;;;;4936763;29;20020;-75
2023/09/02 03:18:28;;;;;;;3.65;1.70;;;15.60;99.90;;;;;;4923220;29;20038;-75
2023/09/02 03:20:55;;;;;;;4.47;1.98;;;15.60;99.90;;;;;;4898744;29;20024;-76
2023/09/02 03:23:21;;;;;;;2.70;1.58;;;15.60;99.90;;;;;;4917058;29;20076;-75
2023/09/02 03:25:50;;;;;;;4.00;2.13;;;15.60;99.90;;;;;;4914611;29;20096;-75
2023/09/02 03:28:15;;;;;;;4.43;1.95;;;15.60;99.90;;;;;;4916978;29;20024;-75
2023/09/02 03:30:41;;;;;;;3.67;1.48;;;15.50;99.90;;;;;;4913900;29;20088;-75
2023/09/02 03:33:09;;;;;;;3.22;1.63;;;15.50;99.90;;;;;;4930049;29;20024;-75
2023/09/02 03:35:38;;;;;;;2.20;1.48;;;15.40;99.90;;;;;;4916448;29;20024;-77
2023/09/02 03:38:05;;;;;;;5.68;2.30;;;15.40;99.90;;;;;;4915114;29;20048;-77
2023/09/02 03:40:30;;;;;;;4.40;1.42;;;15.40;99.90;;;;;;4913851;29;20058;-76
2023/09/02 03:42:56;;;;;;;3.53;2.38;;;15.40;99.90;;;;;;4912678;29;20530;-78
2023/09/02 03:45:21;;;;;;;2.30;1.23;;;15.30;99.90;;;;;;4931429;29;20036;-77
2023/09/02 03:47:47;;;;;;;3.80;1.88;;;15.30;99.90;;;;;;4919011;29;20103;-77
2023/09/02 03:50:13;;;;;;;4.47;1.88;;;15.30;99.90;;;;;;4900632;29;20052;-77
2023/09/02 03:52:38;;;;;;;2.30;1.45;;;15.30;99.90;;;;;;4900020;29;20054;-76
2023/09/02 03:55:04;;;;;;;3.00;1.65;;;15.20;99.90;;;;;;4916362;29;20159;-77
2023/09/02 03:57:31;;;;;;;3.33;1.70;;;15.20;99.90;;;;;;4914481;29;20396;-78
2023/09/02 03:59:56;;;;;;;2.05;1.50;;;15.20;99.90;;;;;;4914543;29;20024;-77
2023/09/02 04:02:22;;;;;;;2.85;1.70;;;15.10;99.90;;;;;;4932767;29;20064;-77
2023/09/02 04:04:47;;;;;;;5.22;1.83;;;15.10;99.90;;;;;;4916160;29;20080;-76
2023/09/02 04:07:13;;;;;;;6.07;1.80;;;15.10;99.90;;;;;;4900430;29;20032;-76
2023/09/02 04:09:39;;;;;;;6.13;1.80;;;15.10;99.90;;;;;;4917002;29;20035;-76
2023/09/02 04:12:04;;;;;;;5.35;2.17;;;15.00;99.90;;;;;;4917560;29;20028;-77
2023/09/02 04:14:30;;;;;;;3.47;1.90;;;15.10;99.90;;;;;;4914923;29;20036;-77
2023/09/02 04:16:58;;;;;;;2.83;1.80;;;15.10;99.90;;;;;;4915336;29;20507;-77
2023/09/02 04:19:23;;;;;;;3.40;1.80;;;15.00;99.90;;;;;;4914206;29;20036;-77
2023/09/02 04:21:52;;;;;;;4.38;1.85;;;15.00;99.90;;;;;;4917691;29;20095;-77
2023/09/02 04:24:17;;;;;;;3.05;1.90;;;15.00;99.90;;;;;;4917711;29;20387;-77
2023/09/02 04:26:43;;;;;;;7.35;2.15;;;14.90;99.90;;;;;;4917753;29;20028;-77
2023/09/02 04:29:08;;;;;;;6.13;1.80;;;14.90;99.90;;;;;;4915086;29;20040;-77
2023/09/02 04:31:34;;;;;;;4.90;1.92;;;14.90;99.90;;;;;;4913423;29;20039;-77
2023/09/02 04:34:00;;;;;;;4.70;2.00;;;14.90;99.90;;;;;;4915197;29;20735;-77
2023/09/02 04:36:25;;;;;;;6.63;1.95;;;14.90;99.90;;;;;;4916832;29;20024;-77
2023/09/02 04:38:51;;;;;;;5.45;2.28;;;14.80;99.90;;;;;;4918669;29;20035;-77
2023/09/02 04:41:17;;;;;;;6.15;2.25;;;14.90;99.90;;;;;;4913463;29;20028;-77
2023/09/02 04:43:43;;;;;;;3.95;1.75;;;14.90;99.90;;;;;;4915911;29;20020;-78
2023/09/02 04:46:08;;;;;;;3.33;1.38;;;14.90;99.90;;;;;;4917655;29;20091;-77
2023/09/02 04:48:34;;;;;;;7.13;1.65;;;14.80;99.90;;;;;;4914299;29;20419;-75
2023/09/02 04:51:00;;;;;;;4.25;1.70;;;14.90;99.90;;;;;;4894911;29;20028;-76
2023/09/02 04:53:25;;;;;;;2.88;1.95;;;14.90;99.90;;;;;;4914990;29;20088;-76
2023/09/02 04:55:51;;;;;;;3.33;1.83;;;14.90;99.90;;;;;;4913355;29;20020;-77
2023/09/02 04:58:20;;;;;;;3.72;1.88;;;14.90;99.90;;;;;;4914002;29;20021;-77
2023/09/02 05:00:45;;;;;;;3.53;1.98;;;14.90;99.90;;;;;;4910659;29;20020;-77
2023/09/02 05:03:11;;;;;;;5.82;1.95;;;14.90;99.90;;;;;;4913584;29;20031;-77
2023/09/02 05:05:37;;;;;;;2.78;1.80;;;14.90;99.90;;;;;;4922079;29;20546;-77
2023/09/02 05:08:03;;;;;;;2.80;1.27;;;14.90;99.90;;;;;;4903350;29;20029;-78
2023/09/02 05:10:29;;;;;;;4.32;2.15;;;14.90;99.90;;;;;;4921969;29;20028;-77
2023/09/02 05:12:54;;;;;;;2.58;1.58;;;14.90;99.90;;;;;;4924405;29;20028;-77
2023/09/02 05:15:20;;;;;;;5.93;1.95;;;14.90;99.90;;;;;;4922446;29;20036;-77
2023/09/02 05:17:46;;;;;;;4.10;1.83;;;14.90;99.90;;;;;;4922675;29;20028;-77
2023/09/02 05:20:12;;;;;;;3.78;1.83;;;14.90;99.90;;;;;;4921489;29;20024;-76
2023/09/02 05:22:37;;;;;;;4.38;1.48;;;15.00;99.90;;;;;;4919280;29;20104;-78
2023/09/02 05:25:04;;;;;;;2.88;1.70;;;15.00;99.90;;;;;;4920802;29;20080;-78
2023/09/02 05:27:30;;;;;;;5.95;1.30;;;15.00;99.90;;;;;;4919501;29;20022;-78
2023/09/02 05:29:56;;;;;;;3.78;1.90;;;15.20;99.90;;;;;;4928053;29;20102;-78
2023/09/02 05:32:22;;;;;;;5.13;2.03;;;15.20;99.90;;;;;;4940466;29;20076;-77
2023/09/02 05:34:48;;;;;;;6.95;1.90;;;15.30;99.90;;;;;;4906783;29;20024;-77
2023/09/02 05:37:14;;;;;;;6.80;2.00;;;15.30;99.90;;;;;;4925778;29;20194;-78
2023/09/02 05:39:40;;;;;;;4.88;1.88;;;15.40;99.90;;;;;;4923243;29;20032;-78
2023/09/02 05:42:06;;;;;;;4.07;1.98;;;15.50;99.90;;;;;;4923196;29;20028;-78
2023/09/02 05:44:34;;;;;;;3.45;1.52;;;15.50;99.90;;;;;;4922756;29;20514;-78
2023/09/02 05:47:00;;;;;;;2.95;1.77;;;15.60;99.90;;;;;;4918373;29;20745;-76
2023/09/02 05:49:26;;;;;;;3.00;1.73;;;15.70;99.90;;;;;;4921589;29;20083;-76
2023/09/02 05:51:51;;;;;;;4.38;1.85;;;15.70;99.90;;;;;;4921989;29;20079;-76
2023/09/02 05:54:17;;;;;;;3.40;2.03;;;15.80;99.90;;;;;;4902735;29;20143;-76
2023/09/02 05:56:46;;;;;;;6.50;2.40;;;15.90;99.90;;;;;;4915146;29;20028;-76
2023/09/02 05:59:12;;;;;;;6.78;2.20;;;15.90;99.90;;;;;;4917328;29;20025;-77
2023/09/02 06:01:38;;;;;;;7.35;2.60;;;16.00;99.90;;;;;;4918419;29;20505;-77
2023/09/02 06:04:04;;;;;;;6.00;2.10;;;16.00;99.90;;;;;;4921356;29;20038;-77
2023/09/02 06:06:29;;;;;;;4.78;2.15;;;16.00;99.90;;;;;;4923123;29;20028;-77
2023/09/02 06:08:55;;;;;;;5.20;2.70;;;16.00;99.90;;;;;;4940168;29;20103;-77
2023/09/02 06:11:20;;;;;;;4.00;2.38;;;16.10;99.90;;;;;;4924423;29;20044;-78
2023/09/02 06:13:46;;;;;;;5.18;2.17;;;16.10;99.90;;;;;;4907496;29;20019;-76
2023/09/02 06:16:12;;;;;;;5.53;2.58;;;16.20;99.90;;;;;;4922866;29;20075;-77
2023/09/02 06:18:38;;;;;;;5.20;2.35;;;16.20;99.90;;;;;;4921469;29;20115;-77
2023/09/02 06:21:11;;;;;;;6.88;2.70;;;16.20;99.90;;;;;;4931065;29;20031;-78
2023/09/02 06:23:44;;;;;;;7.60;2.72;;;16.30;99.90;;;;;;4919021;29;20027;-77
2023/09/02 06:26:11;;;;;;;4.30;2.47;;;16.40;99.90;;;;;;4913457;29;21330;-76
2023/09/02 06:28:44;;;;;;;9.20;2.67;;;16.40;99.90;;;;;;4918826;29;20026;-76
2023/09/02 06:31:10;;;;;;;5.07;2.55;;;16.40;99.90;;;;;;4918244;29;20140;-77
2023/09/02 06:33:36;;;;;;;4.55;2.90;;;16.40;99.90;;;;;;4920545;29;20061;-77
2023/09/02 06:36:21;;;;;;;4.13;2.67;;;16.40;99.90;;;;;;4916595;29;20392;-77
2023/09/02 06:38:47;;;;;;;3.45;2.40;;;16.50;99.90;;;;;;4914492;29;20031;-78
2023/09/02 06:41:14;;;;;;;5.30;2.42;;;16.50;99.90;;;;;;4935948;29;20625;-76
2023/09/02 06:43:41;;;;;;;5.25;2.22;;;16.50;99.90;;;;;;4918060;29;20035;-77
2023/09/02 06:46:19;;;;;;;7.50;2.80;;;16.50;99.90;;;;;;4917835;29;20123;-76
2023/09/02 06:48:45;;;;;;;5.25;2.50;;;16.50;99.90;;;;;;4918789;29;21337;-77
2023/09/02 06:51:12;;;;;;;5.47;2.45;;;16.50;99.90;;;;;;4920196;29;20106;-75
2023/09/02 06:53:39;;;;;;;4.95;2.67;;;16.50;99.90;;;;;;4922473;29;20079;-76
2023/09/02 06:56:09;;;;;;;7.50;3.08;;;16.50;99.90;;;;;;4923933;29;20033;-76
2023/09/02 06:58:42;;;;;;;5.80;2.63;;;16.60;99.90;;;;;;4915020;29;20503;-77
2023/09/02 07:01:18;;;;;;;7.82;3.25;;;16.60;99.90;;;;;;4918201;29;20048;-76
2023/09/02 07:03:45;;;;;;;4.35;2.67;;;16.60;99.90;;;;;;4925369;29;20027;-76
2023/09/02 07:06:15;;;;;;;6.03;2.42;;;16.70;99.90;;;;;;4920719;29;20295;-76
2023/09/02 07:08:43;;;;;;;5.07;2.92;;;16.70;99.90;;;;;;4919333;29;20114;-76
2023/09/02 07:11:10;;;;;;;4.82;2.20;;;16.80;99.90;;;;;;4919194;29;20039;-77
2023/09/02 07:13:37;;;;;;;10.27;2.70;;;16.90;99.90;;;;;;4904257;29;20043;-76
2023/09/02 07:16:06;;;;;;;5.60;2.00;;;16.90;99.90;;;;;;4933207;29;20136;-76
2023/09/02 07:18:33;;;;;;;6.03;2.40;;;17.00;99.90;;;;;;4917519;29;20028;-77
2023/09/02 07:21:03;;;;;;;4.75;2.13;;;17.10;99.90;;;;;;4919288;29;20024;-77
2023/09/02 07:23:30;;;;;;;4.10;2.38;;;17.10;99.90;;;;;;4919656;29;20035;-77
2023/09/02 07:25:59;;;;;;;7.80;2.42;;;17.20;99.90;;;;;;4915577;29;20020;-76
2023/09/02 07:28:25;;;;;;;4.78;2.45;;;17.20;99.90;;;;;;4915686;29;20016;-76
2023/09/02 07:30:51;;;;;;;5.65;2.55;;;17.30;99.90;;;;;;4899666;29;20404;-77
2023/09/02 07:33:17;;;;;;;2.95;2.30;;;17.30;99.90;;;;;;4916869;29;20027;-77
2023/09/02 07:35:43;;;;;;;5.10;2.08;;;17.30;99.90;;;;;;4916946;29;20099;-76
2023/09/02 07:38:08;;;;;;;5.13;2.17;;;17.40;99.90;;;;;;4915670;29;20491;-75
2023/09/02 07:40:34;;;;;;;5.25;2.28;;;17.50;99.90;;;;;;4915914;29;20024;-75
2023/09/02 07:43:01;;;;;;;3.65;2.20;;;17.60;99.90;;;;;;4919741;29;20024;-75
2023/09/02 07:45:27;;;;;;;3.63;2.28;;;17.70;99.90;;;;;;4916956;29;20028;-75
2023/09/02 07:47:54;;;;;;;5.63;2.83;;;17.70;99.90;;;;;;4897479;29;20032;-74
2023/09/02 07:50:19;;;;;;;5.22;2.60;;;17.80;99.90;;;;;;4916556;29;20499;-73
2023/09/02 07:52:45;;;;;;;4.60;2.25;;;17.80;99.90;;;;;;4909261;29;20035;-74
2023/09/02 07:55:11;;;;;;;3.05;2.00;;;17.90;99.90;;;;;;4912958;29;20072;-74
2023/09/02 07:57:36;;;;;;;3.72;2.17;;;18.00;99.90;;;;;;4915803;29;20146;-74
2023/09/02 08:00:02;;;;;;;3.78;2.35;;;18.10;99.90;;;;;;4899423;29;20026;-74
2023/09/02 08:02:28;;;;;;;3.72;2.15;;;18.20;99.90;;;;;;4926584;29;20038;-75
2023/09/02 08:04:53;;;;;;;4.95;2.22;;;18.30;99.90;;;;;;4914534;29;20468;-74
2023/09/02 08:07:19;;;;;;;3.78;2.30;;;18.40;99.90;;;;;;4917568;29;20058;-72
2023/09/02 08:09:48;;;;;;;4.60;2.40;;;18.50;99.90;;;;;;4910021;29;20047;-73
2023/09/02 08:12:13;;;;;;;4.65;2.17;;;18.50;99.90;;;;;;4914266;29;20055;-73
2023/09/02 08:14:39;;;;;;;3.22;2.25;;;18.60;99.90;;;;;;4914488;29;20059;-74
2023/09/02 08:17:04;;;;;;;4.53;2.38;;;18.70;99.90;;;;;;4930402;29;20383;-73
2023/09/02 08:19:31;;;;;;;5.50;1.90;;;18.80;99.90;;;;;;4899596;29;20028;-73
2023/09/02 08:21:57;;;;;;;5.07;2.30;;;18.80;99.90;;;;;;4901020;29;20030;-73
2023/09/02 08:24:22;;;;;;;2.30;1.67;;;18.90;99.90;;;;;;4920899;29;20110;-75
2023/09/02 08:26:48;;;;;;;4.15;1.85;;;19.00;99.90;;;;;;4914721;29;20036;-73
2023/09/02 08:29:14;;;;;;;3.22;2.30;;;19.10;99.90;;;;;;4918671;29;20403;-73
2023/09/02 08:31:39;;;;;;;2.95;1.75;;;19.20;99.90;;;;;;4914451;29;20083;-73
2023/09/02 08:34:05;;;;;;;3.78;2.30;;;19.20;99.90;;;;;;4915831;29;20028;-75
2023/09/02 08:36:30;;;;;;;5.32;2.50;;;19.30;99.90;;;;;;4919470;29;20079;-75
2023/09/02 08:38:56;;;;;;;3.38;2.20;;;19.40;99.90;;;;;;4917836;29;20024;-74
2023/09/02 08:41:30;;;;;;;3.25;2.30;;;19.50;99.90;;;;;;4918184;29;20116;-73
2023/09/02 08:44:02;;;;;;;6.90;2.50;;;19.60;99.90;;;;;;4915673;29;20028;-74
2023/09/02 08:46:31;;;;;;;6.55;2.47;;;19.70;99.90;;;;;;4905362;29;20278;-75
2023/09/02 08:48:58;;;;;;;3.10;2.10;;;19.80;99.90;;;;;;4905083;29;20044;-74
2023/09/02 08:51:25;;;;;;;4.57;2.30;;;19.90;99.90;;;;;;4921335;29;20027;-75
2023/09/02 08:53:53;;;;;;;4.80;2.28;;;20.00;99.90;;;;;;4923269;29;20287;-74
2023/09/02 08:56:20;;;;;;;5.95;2.65;;;20.10;99.90;;;;;;4919764;29;20056;-76
2023/09/02 08:58:46;;;;;;;2.97;2.13;;;20.10;99.90;;;;;;4920805;29;20020;-76
2023/09/02 09:01:17;;;;;;;5.38;2.40;;;20.20;99.90;;;;;;4905126;29;20052;-75
2023/09/02 09:03:49;;;;;;;2.85;2.08;;;20.30;99.90;;;;;;4917511;29;20502;-76
2023/09/02 09:06:16;;;;;;;7.20;2.28;;;20.40;99.90;;;;;;4922366;29;20024;-76
2023/09/02 09:08:44;;;;;;;4.47;2.25;;;20.50;99.90;;;;;;4920061;29;20032;-76
2023/09/02 09:11:11;;;;;;;5.95;2.85;;;20.50;99.90;;;;;;4918839;29;20038;-77
2023/09/02 09:13:44;;;;;;;3.67;1.80;;;20.60;99.90;;;;;;4913509;29;20341;-78
2023/09/02 09:16:31;;;;;;;4.95;2.00;;;20.70;99.90;;;;;;4919040;29;20028;-74
2023/09/02 09:18:57;;;;;;;3.15;2.08;;;20.80;99.90;;;;;;4919531;29;20032;-75
2023/09/02 09:21:23;;;;;;;3.35;1.90;;;20.80;99.90;;;;;;4901871;29;20360;-75
2023/09/02 09:23:49;;;;;;;6.20;2.50;;;20.90;99.90;;;;;;4921070;29;20028;-76
2023/09/02 09:26:16;;;;;;;2.92;2.00;;;21.00;99.90;;;;;;4923557;29;20333;-75
2023/09/02 09:28:53;;;;;;;5.10;2.35;;;21.00;99.90;;;;;;4923641;29;20063;-75
2023/09/02 09:31:19;;;;;;;2.95;1.90;;;21.10;99.90;;;;;;4923448;29;20023;-76
2023/09/02 09:33:53;;;;;;;3.58;1.55;;;21.10;99.90;;;;;;4920996;29;20039;-76
2023/09/02 09:36:22;;;;;;;5.32;1.90;;;21.20;99.90;;;;;;4923118;29;20579;-76
2023/09/02 09:38:52;;;;;;;2.67;2.00;;;21.30;99.90;;;;;;4919589;29;20048;-76
2023/09/02 09:41:18;;;;;;;4.70;1.63;;;21.40;99.90;;;;;;4939703;29;20024;-76
2023/09/02 09:44:06;;;;;;;4.43;2.22;;;21.40;99.90;;;;;;4936590;29;20047;-76
2023/09/02 09:46:44;;;;;;;4.35;1.92;;;21.50;99.90;;;;;;4920393;29;20478;-76
2023/09/02 09:49:29;;;;;;;3.13;1.90;;;21.50;99.90;;;;;;4924638;29;20510;-76
2023/09/02 09:52:01;;;;;;;5.85;1.90;;;21.60;99.90;;;;;;4932695;29;20104;-76
2023/09/02 09:54:39;;;;;;;3.13;1.80;;;21.80;99.90;;;;;;4918846;29;20064;-75
2023/09/02 09:57:07;;;;;;;4.13;1.75;;;21.80;99.90;;;;;;4918624;29;20028;-76
2023/09/02 09:59:37;;;;;;;4.25;2.00;;;21.90;99.90;;;;;;4920532;29;20073;-76
2023/09/02 10:02:04;;;;;;;5.53;1.85;;;22.10;99.90;;;;;;4934492;29;20029;-76
2023/09/02 10:04:30;;;;;;;2.92;2.05;;;22.20;99.90;;;;;;4920335;29;20047;-76
2023/09/02 10:07:04;;;;;;;2.17;1.40;;;22.20;99.90;;;;;;4932659;29;20505;-76
2023/09/02 10:09:43;;;;;;;2.08;1.83;;;22.20;99.90;;;;;;4915638;29;20035;-76
2023/09/02 10:12:16;;;;;;;3.38;1.75;;;22.30;99.90;;;;;;4899968;29;20046;-76
2023/09/02 10:14:46;;;;;;;5.15;1.67;;;22.30;99.90;;;;;;4916491;29;20040;-76
2023/09/02 10:17:13;;;;;;;2.92;1.73;;;22.40;99.90;;;;;;4914743;29;20085;-75
2023/09/02 10:19:40;;;;;;;2.88;1.70;;;22.50;99.90;;;;;;4957788;23;20050;-73
2023/09/02 10:22:06;;;;;;;2.97;1.60;;;22.60;99.90;;;;;;4974410;28;20403;-73
2023/09/02 10:24:44;;;;;;;3.72;1.95;;;22.60;99.90;;;;;;4992534;28;20512;-73
2023/09/02 10:27:18;;;;;;;4.45;1.90;;;22.60;99.90;;;;;;4976681;28;20046;-73
2023/09/02 10:29:46;;;;;;;3.88;1.60;;;22.70;99.90;;;;;;4977083;28;20113;-73
2023/09/02 10:32:12;;;;;;;2.22;1.52;;;22.70;99.90;;;;;;4989730;28;20042;-73
2023/09/02 10:35:08;;;;;;;3.70;1.30;;;22.80;99.90;;;;;;4990680;28;20109;-73
2023/09/02 10:37:56;;;;;;;2.40;1.63;;;22.90;99.90;;;;;;4987737;28;20018;-73
2023/09/02 10:40:27;;;;;;;3.03;1.50;;;23.00;99.90;;;;;;4988204;28;20022;-73
2023/09/02 10:42:54;;;;;;;3.30;1.30;;;23.10;99.90;;;;;;4991286;28;20587;-73
2023/09/02 10:45:20;;;;;;;2.05;1.38;;;23.10;99.90;;;;;;4992450;28;20037;-73
2023/09/02 10:47:47;;;;;;;1.42;1.02;;;23.30;99.90;;;;;;4991525;28;20050;-74
2023/09/02 10:50:18;;;;;;;2.97;1.02;;;23.30;99.90;;;;;;4976837;28;20045;-73
2023/09/02 10:52:44;;;;;;;2.22;1.30;;;23.30;99.90;;;;;;4990663;28;20489;-74
2023/09/02 10:55:10;;;;;;;1.58;1.17;;;23.30;99.90;;;;;;4990629;28;20030;-74
2023/09/02 10:57:57;;;;;;;2.85;1.60;;;23.30;99.90;;;;;;4986619;28;20029;-74
2023/09/02 11:00:26;;;;;;;2.00;1.40;;;23.40;99.90;;;;;;4992201;28;20037;-74
2023/09/02 11:02:53;;;;;;;4.85;1.60;;;23.40;99.90;;;;;;4993412;28;20498;-74
2023/09/02 11:05:20;;;;;;;3.83;1.65;;;23.50;99.90;;;;;;4991625;28;20025;-74
2023/09/02 11:07:47;;;;;;;2.60;1.30;;;23.50;99.90;;;;;;4969980;28;20030;-74
2023/09/02 11:10:13;;;;;;;4.05;1.80;;;23.60;99.90;;;;;;4985990;28;20085;-74
2023/09/02 11:13:00;;;;;;;5.10;1.55;;;23.60;99.90;;;;;;4974793;28;20396;-74
2023/09/02 11:15:30;;;;;;;2.00;1.40;;;23.70;99.90;;;;;;4989717;28;20422;-74
2023/09/02 11:18:28;;;;;;;2.28;1.20;;;23.70;99.90;;;;;;4991009;28;20089;-74
2023/09/02 11:21:00;;;;;;;1.50;0.90;;;23.80;99.90;;;;;;4986867;28;20050;-74
2023/09/02 11:23:26;;;;;;;2.10;1.10;;;23.80;99.70;;;;;;4988520;28;20049;-74
2023/09/02 11:26:06;;;;;;;1.95;0.98;;;23.80;98.70;;;;;;4974498;28;20370;-74
2023/09/02 11:28:32;;;;;;;4.10;0.90;;;23.90;98.30;;;;;;4992046;28;20029;-74
2023/09/02 11:31:14;;;;;;;3.70;1.10;;;23.90;98.50;;;;;;4989898;28;20366;-74
2023/09/02 11:33:45;;;;;;;1.77;0.90;;;24.00;98.70;;;;;;4988674;28;20533;-74
2023/09/02 11:36:14;;;;;;;2.92;1.08;;;24.00;98.40;;;;;;4989809;28;20076;-72
2023/09/02 11:38:43;;;;;;;2.10;1.40;;;24.00;98.50;;;;;;4984519;28;20022;-74
2023/09/02 11:41:20;;;;;;;1.38;0.95;;;24.00;98.30;;;;;;4987187;28;20022;-73
2023/09/02 11:43:46;;;;;;;1.75;1.30;;;24.10;97.80;;;;;;4989600;28;20029;-72
2023/09/02 11:46:12;;;;;;;1.80;1.00;;;24.10;97.80;;;;;;4987239;28;21197;-72
2023/09/02 11:48:38;;;;;;;3.13;1.23;;;24.10;97.20;;;;;;4990589;28;20041;-72
2023/09/02 11:51:04;;;;;;;1.63;0.90;;;24.20;96.30;;;;;;4986379;28;20022;-72
2023/09/02 11:53:31;;;;;;;1.02;0.80;;;24.20;96.80;;;;;;4989921;28;20393;-72
2023/09/02 11:55:59;;;;;;;1.58;1.10;;;24.10;97.10;;;;;;4989451;28;20705;-73
2023/09/02 11:58:25;;;;;;;1.40;0.93;;;24.20;97.10;;;;;;4987766;28;20080;-73
2023/09/02 12:01:02;;;;;;;2.10;1.27;;;24.20;97.40;;;;;;4988464;28;20433;-72
2023/09/02 12:03:28;;;;;;;1.33;0.88;;;24.20;97.10;;;;;;4970158;28;20122;-72
2023/09/02 12:06:00;;;;;;;1.65;1.20;;;24.30;96.20;;;;;;4986587;28;20032;-71
2023/09/02 12:08:29;;;;;;;2.78;1.05;;;24.40;95.00;;;;;;4983749;28;20030;-73
2023/09/02 12:11:04;;;;;;;1.98;1.05;;;24.50;94.30;;;;;;4978474;28;20033;-73
2023/09/02 12:13:31;;;;;;;1.55;1.05;;;24.60;94.40;;;;;;4990535;28;20453;-73
2023/09/02 12:15:57;;;;;;;1.90;0.90;;;24.60;94.10;;;;;;4975937;28;20083;-73
2023/09/02 12:18:24;;;;;;;1.98;1.30;;;24.60;94.10;;;;;;4993980;28;20105;-73
2023/09/02 12:20:50;;;;;;;1.95;1.13;;;24.60;93.90;;;;;;4997527;28;20055;-73
2023/09/02 12:23:16;;;;;;;2.42;1.35;;;24.60;94.00;;;;;;4994262;28;20026;-73
2023/09/02 12:25:59;;;;;;;2.05;1.10;;;24.60;94.10;;;;;;4996528;28;20037;-73
2023/09/02 12:28:29;;;;;;;1.63;1.13;;;24.60;94.50;;;;;;4993317;28;20045;-72
2023/09/02 12:30:55;;;;;;;3.75;1.17;;;24.60;95.10;;;;;;4996244;28;20022;-72
2023/09/02 12:33:21;;;;;;;2.80;1.00;;;24.60;95.00;;;;;;4979999;28;20360;-73
2023/09/02 12:35:50;;;;;;;3.17;1.38;;;24.50;95.10;;;;;;4994540;28;20035;-73
2023/09/02 12:38:18;;;;;;;2.05;1.30;;;24.60;94.60;;;;;;4996231;28;20451;-73
2023/09/02 12:41:13;;;;;;;1.33;0.90;;;24.60;94.30;;;;;;4978322;28;20677;-73
2023/09/02 12:43:38;;;;;;;3.05;1.33;;;24.60;94.00;;;;;;4975501;28;20167;-73
2023/09/02 12:46:04;;;;;;;5.10;1.40;;;24.60;93.80;;;;;;5001132;28;20059;-74
2023/09/02 12:48:30;;;;;;;1.88;1.10;;;24.80;93.80;;;;;;4997194;28;20542;-74
2023/09/02 12:50:55;;;;;;;1.42;1.05;;;24.70;93.50;;;;;;5000212;28;20432;-74
2023/09/02 12:53:22;;;;;;;3.67;1.50;;;24.70;93.40;;;;;;5001625;28;20366;-73